Time;durP1;ratioP1;P1;durP2;ratioP2;P2;SDS_P1;SDS_P2;PMS_P1;PMS_P2;Temp;Humidity;BMP_temperature;BMP_pressure;BME280_temperature;BME280_humidity;BME280_pressure;Samples;Min_cycle;Max_cycle;Signal;HPM_P1;HPM_P2
2022/08/11 00:01:48;;;;;;;6.05;3.40;;;;;;;;;;4972219;28;20046;-61
2022/08/11 00:04:15;;;;;;;6.30;3.38;;;;;;;;;;4971827;28;20125;-61
2022/08/11 00:06:41;;;;;;;4.45;3.58;;;;;;;;;;4971496;28;20133;-60
2022/08/11 00:09:12;;;;;;;5.72;3.67;;;;;;;;;;4954640;28;20043;-61
2022/08/11 00:11:48;;;;;;;5.32;3.55;;;;;;;;;;4971921;28;20046;-61
2022/08/11 00:14:16;;;;;;;6.18;3.58;;;;;;;;;;4971298;28;20092;-61
2022/08/11 00:16:45;;;;;;;4.80;3.30;;;;;;;;;;4971898;28;20054;-61
2022/08/11 00:19:12;;;;;;;7.15;3.67;;;;;;;;;;4971987;28;20413;-61
2022/08/11 00:21:41;;;;;;;7.00;3.53;;;;;;;;;;4971528;28;20043;-61
2022/08/11 00:24:07;;;;;;;5.63;3.63;;;;;;;;;;4971749;28;20462;-61
2022/08/11 00:26:35;;;;;;;6.90;3.83;;;;;;;;;;4984370;28;20049;-61
2022/08/11 00:29:08;;;;;;;4.78;3.78;;;;;;;;;;4990748;28;20058;-61
2022/08/11 00:31:35;;;;;;;5.45;3.50;;;;;;;;;;4990810;28;20516;-61
2022/08/11 00:34:02;;;;;;;5.80;3.50;;;;;;;;;;4990961;28;20040;-61
2022/08/11 00:36:48;;;;;;;4.95;3.40;;;;;;;;;;4990713;28;20065;-60
2022/08/11 00:39:15;;;;;;;4.28;3.80;;;;;;;;;;4990588;28;20082;-60
2022/08/11 00:42:06;;;;;;;6.30;3.70;;;;;;;;;;4990576;28;20050;-60
2022/08/11 00:44:38;;;;;;;5.63;3.53;;;;;;;;;;4971126;28;20065;-60
2022/08/11 00:47:10;;;;;;;5.22;3.88;;;;;;;;;;4971297;28;20220;-60
2022/08/11 00:49:52;;;;;;;3.67;3.30;;;;;;;;;;4935478;28;1061799;-60
2022/08/11 00:52:18;;;;;;;5.25;3.70;;;;;;;;;;4971467;28;20070;-61
2022/08/11 00:54:47;;;;;;;6.65;3.80;;;;;;;;;;4972041;28;20167;-61
2022/08/11 00:57:19;;;;;;;5.90;3.72;;;;;;;;;;4971978;28;20401;-61
2022/08/11 01:00:03;;;;;;;8.05;3.63;;;;;;;;;;4971609;28;20043;-60
2022/08/11 01:02:46;;;;;;;6.25;3.67;;;;;;;;;;4972071;28;20051;-60
2022/08/11 01:05:31;;;;;;;6.22;3.35;;;;;;;;;;4971640;28;20046;-60
2022/08/11 01:08:15;;;;;;;5.68;3.75;;;;;;;;;;4970936;28;20049;-60
2022/08/11 01:11:17;;;;;;;4.35;3.78;;;;;;;;;;4971939;28;20370;-60
2022/08/11 01:14:02;;;;;;;4.40;3.47;;;;;;;;;;4968840;28;20046;-60
2022/08/11 01:16:31;;;;;;;6.38;4.10;;;;;;;;;;4971660;28;20179;-60
2022/08/11 01:19:16;;;;;;;4.88;4.18;;;;;;;;;;4971658;28;20093;-60
2022/08/11 01:22:00;;;;;;;6.43;4.30;;;;;;;;;;4971511;28;20043;-60
2022/08/11 01:24:40;;;;;;;6.97;3.90;;;;;;;;;;4971824;28;20042;-60
2022/08/11 01:27:16;;;;;;;6.75;3.70;;;;;;;;;;4988803;28;20085;-60
2022/08/11 01:30:03;;;;;;;6.80;4.38;;;;;;;;;;4991213;28;20117;-60
2022/08/11 01:32:48;;;;;;;5.80;3.70;;;;;;;;;;4991131;28;20046;-60
2022/08/11 01:35:33;;;;;;;6.07;4.50;;;;;;;;;;4990706;28;20049;-60
2022/08/11 01:38:18;;;;;;;8.57;4.45;;;;;;;;;;4990897;28;20042;-60
2022/08/11 01:41:03;;;;;;;8.32;4.40;;;;;;;;;;4991165;28;20038;-60
2022/08/11 01:46:39;;;;;;;5.70;4.35;;;;;;;;;;4990991;28;20633;-60
2022/08/11 01:49:14;;;;;;;4.65;4.25;;;;;;;;;;4990727;28;20089;-60
2022/08/11 01:52:01;;;;;;;7.55;4.70;;;;;;;;;;4990204;28;20039;-60
2022/08/11 01:54:31;;;;;;;5.35;4.15;;;;;;;;;;4990981;28;20047;-61
2022/08/11 01:57:12;;;;;;;6.55;5.00;;;;;;;;;;4990430;28;20042;-61
2022/08/11 01:59:49;;;;;;;7.15;4.68;;;;;;;;;;4990848;28;20184;-61
2022/08/11 02:02:44;;;;;;;5.05;4.45;;;;;;;;;;4990987;28;20043;-61
2022/08/11 02:05:25;;;;;;;6.97;4.75;;;;;;;;;;4972830;28;20042;-61
2022/08/11 02:08:10;;;;;;;5.45;4.80;;;;;;;;;;4990760;28;20085;-61
2022/08/11 02:13:33;;;;;;;7.07;5.03;;;;;;;;;;4990415;28;20042;-61
2022/08/11 02:16:23;;;;;;;6.07;4.97;;;;;;;;;;4990661;28;20042;-61
2022/08/11 02:24:40;;;;;;;7.32;5.40;;;;;;;;;;4994219;28;20224;-61
2022/08/11 02:27:09;;;;;;;6.05;5.03;;;;;;;;;;4993750;28;20049;-61
2022/08/11 02:29:45;;;;;;;7.70;5.50;;;;;;;;;;4994104;28;20042;-61
2022/08/11 02:35:10;;;;;;;7.38;4.97;;;;;;;;;;4993640;28;20046;-61
2022/08/11 02:37:45;;;;;;;7.78;5.40;;;;;;;;;;4993893;28;20084;-61
2022/08/11 02:40:14;;;;;;;6.20;4.80;;;;;;;;;;4993908;28;20177;-61
2022/08/11 02:42:54;;;;;;;5.80;5.20;;;;;;;;;;4993500;28;20117;-60
2022/08/11 02:45:39;;;;;;;7.30;5.55;;;;;;;;;;4993712;28;20042;-60
2022/08/11 02:51:12;;;;;;;11.23;5.47;;;;;;;;;;4975496;28;20042;-60
2022/08/11 02:53:44;;;;;;;10.45;5.35;;;;;;;;;;4993752;28;20042;-60
2022/08/11 02:56:16;;;;;;;8.05;5.90;;;;;;;;;;4993196;28;20069;-60
2022/08/11 02:58:42;;;;;;;6.47;5.47;;;;;;;;;;4993590;28;20054;-61
2022/08/11 03:01:10;;;;;;;9.27;6.30;;;;;;;;;;4993511;28;20057;-61
2022/08/11 03:03:42;;;;;;;9.18;5.90;;;;;;;;;;4993203;28;20493;-61
2022/08/11 03:06:23;;;;;;;7.60;5.93;;;;;;;;;;4993424;28;20042;-60
2022/08/11 03:08:53;;;;;;;7.22;5.63;;;;;;;;;;4992408;28;20065;-60
2022/08/11 03:17:07;;;;;;;11.10;6.15;;;;;;;;;;4992292;28;20046;-60
2022/08/11 03:19:58;;;;;;;8.55;6.30;;;;;;;;;;4992162;28;20042;-60
2022/08/11 03:22:29;;;;;;;8.88;6.28;;;;;;;;;;4956781;28;20607;-60
2022/08/11 03:25:00;;;;;;;9.88;6.53;;;;;;;;;;4992668;28;20053;-61
2022/08/11 03:27:36;;;;;;;8.20;6.57;;;;;;;;;;4972933;28;20047;-61
2022/08/11 03:30:08;;;;;;;7.40;5.95;;;;;;;;;;4973579;28;20039;-60
2022/08/11 03:32:38;;;;;;;8.40;5.65;;;;;;;;;;4972792;28;20481;-60
2022/08/11 03:35:05;;;;;;;7.72;6.85;;;;;;;;;;4973176;28;20103;-60
2022/08/11 03:38:03;;;;;;;8.57;6.82;;;;;;;;;;4973092;28;20066;-60
2022/08/11 03:43:30;;;;;;;12.75;7.53;;;;;;;;;;4984947;28;20046;-60
2022/08/11 03:46:05;;;;;;;9.32;6.85;;;;;;;;;;4992556;28;20112;-60
2022/08/11 03:48:50;;;;;;;9.95;7.45;;;;;;;;;;4991528;28;20138;-60
2022/08/11 03:51:23;;;;;;;8.85;7.15;;;;;;;;;;4992536;28;20148;-60
2022/08/11 03:53:49;;;;;;;8.25;6.82;;;;;;;;;;4992382;28;20053;-60
2022/08/11 03:56:33;;;;;;;9.30;7.10;;;;;;;;;;4974314;28;20425;-60
2022/08/11 03:59:19;;;;;;;10.02;6.88;;;;;;;;;;4992299;28;20057;-60
2022/08/11 04:01:54;;;;;;;12.07;7.25;;;;;;;;;;4992069;28;20061;-60
2022/08/11 04:04:39;;;;;;;11.65;7.75;;;;;;;;;;4991940;28;20060;-60
2022/08/11 04:07:18;;;;;;;8.82;7.40;;;;;;;;;;4991936;28;20096;-60
2022/08/11 04:09:45;;;;;;;11.90;7.90;;;;;;;;;;4992239;28;20425;-60
2022/08/11 04:12:21;;;;;;;12.40;7.90;;;;;;;;;;4991824;28;20050;-60
2022/08/11 04:18:16;;;;;;;9.85;7.57;;;;;;;;;;4897489;29;20072;-59
2022/08/11 04:20:57;;;;;;;10.80;7.50;;;;;;;;;;4991452;28;20050;-59
2022/08/11 04:24:03;;;;;;;9.20;7.85;;;;;;;;;;4991633;28;20096;-59
2022/08/11 04:26:32;;;;;;;12.38;7.75;;;;;;;;;;4911470;29;20123;-59
2022/08/11 04:29:17;;;;;;;10.45;8.13;;;;;;;;;;4979448;28;20056;-59
2022/08/11 04:31:49;;;;;;;10.52;7.50;;;;;;;;;;4991566;28;20096;-59
2022/08/11 04:34:33;;;;;;;11.77;7.70;;;;;;;;;;4991567;28;20045;-59
2022/08/11 04:40:02;;;;;;;13.35;8.50;;;;;;;;;;4991396;28;20050;-59
2022/08/11 04:45:37;;;;;;;11.32;8.10;;;;;;;;;;4991390;28;20046;-59
2022/08/11 05:03:04;;;;;;;11.68;8.93;;;;;;;;;;4991026;28;20089;-59
2022/08/11 05:05:45;;;;;;;15.65;8.90;;;;;;;;;;4991254;28;20105;-61
2022/08/11 05:08:30;;;;;;;13.00;9.55;;;;;;;;;;4991222;28;20042;-60
2022/08/11 05:11:02;;;;;;;13.32;8.68;;;;;;;;;;4991076;28;20049;-61
2022/08/11 05:36:49;;;;;;;13.88;9.65;;;;;;;;;;4970775;28;20051;-60
2022/08/11 05:58:40;;;;;;;12.43;9.18;;;;;;;;;;5013421;28;20093;-61
2022/08/11 06:01:06;;;;;;;13.30;9.75;;;;;;;;;;5002307;28;20109;-60
2022/08/11 06:04:12;;;;;;;13.40;8.35;;;;;;;;;;4994405;28;20035;-61
2022/08/11 06:06:22;;;;;;;11.80;8.07;;;;;;;;;;4974442;28;20094;-61
2022/08/11 06:08:49;;;;;;;16.48;9.20;;;;;;;;;;4982634;28;20100;-61
2022/08/11 06:11:17;;;;;;;10.45;9.05;;;;;;;;;;4994335;28;20686;-61
2022/08/11 06:13:46;;;;;;;10.70;8.88;;;;;;;;;;4993679;28;20049;-60
2022/08/11 06:16:14;;;;;;;12.25;8.65;;;;;;;;;;4984766;28;20055;-62
2022/08/11 06:18:45;;;;;;;13.20;8.90;;;;;;;;;;4993053;28;20045;-62
2022/08/11 06:21:11;;;;;;;11.13;8.57;;;;;;;;;;4993695;28;20513;-62
2022/08/11 06:23:41;;;;;;;12.82;8.48;;;;;;;;;;4993061;28;20050;-62
2022/08/11 06:26:11;;;;;;;12.27;8.77;;;;;;;;;;4993537;28;20042;-62
2022/08/11 06:28:37;;;;;;;11.90;8.90;;;;;;;;;;4992170;28;20046;-62
2022/08/11 06:31:14;;;;;;;13.05;8.30;;;;;;;;;;4990220;28;20085;-62
2022/08/11 06:33:49;;;;;;;11.25;8.18;;;;;;;;;;4997417;28;20038;-62
2022/08/11 06:36:22;;;;;;;13.75;8.13;;;;;;;;;;4994230;28;20137;-60
2022/08/11 06:38:48;;;;;;;;;;;;;;;;;;4993364;28;20053;-61
2022/08/11 06:41:31;;;;;;;13.65;7.72;;;;;;;;;;4999392;28;19921;-61
2022/08/11 06:44:01;;;;;;;12.70;6.90;;;;;;;;;;4991520;28;20061;-61
2022/08/11 06:46:38;;;;;;;9.68;6.40;;;;;;;;;;4992740;28;20077;-62
2022/08/11 06:52:01;;;;;;;10.73;6.85;;;;;;;;;;4987707;28;20046;-61
2022/08/11 06:54:33;;;;;;;8.82;6.28;;;;;;;;;;4993752;28;20043;-60
2022/08/11 07:02:34;;;;;;;8.52;6.20;;;;;;;;;;4980871;28;20054;-57
2022/08/11 07:05:02;;;;;;;9.50;5.68;;;;;;;;;;4990931;28;20070;-59
2022/08/11 07:16:27;;;;;;;6.15;4.28;;;;;;;;;;4977925;28;20050;-58
2022/08/11 07:30:08;;;;;;;5.75;3.00;;;;;;;;;;4985390;28;20050;-57
2022/08/11 07:32:37;;;;;;;5.25;3.05;;;;;;;;;;4990994;28;20034;-58
2022/08/11 07:35:13;;;;;;;5.05;2.72;;;;;;;;;;4992306;28;20038;-59
2022/08/11 07:37:43;;;;;;;4.70;2.40;;;;;;;;;;4994138;28;20049;-60
2022/08/11 07:40:09;;;;;;;6.22;2.70;;;;;;;;;;4997012;28;20050;-60
2022/08/11 07:42:36;;;;;;;5.85;2.40;;;;;;;;;;4989977;28;20153;-60
2022/08/11 07:53:20;;;;;;;4.47;2.42;;;;;;;;;;4996143;28;20057;-58
2022/08/11 07:55:48;;;;;;;3.38;1.92;;;;;;;;;;4993256;28;20040;-58
2022/08/11 08:17:51;;;;;;;3.85;1.80;;;;;;;;;;4990946;28;20121;-60
2022/08/11 08:20:18;;;;;;;3.97;1.70;;;;;;;;;;4975920;28;20559;-60
2022/08/11 08:22:46;;;;;;;2.33;1.42;;;;;;;;;;4989691;28;20389;-60
2022/08/11 08:25:13;;;;;;;3.08;1.52;;;;;;;;;;4990724;28;20381;-60
2022/08/11 08:27:42;;;;;;;2.20;1.63;;;;;;;;;;4991028;28;20046;-59
2022/08/11 08:32:56;;;;;;;4.60;1.58;;;;;;;;;;4990358;28;20039;-60
2022/08/11 08:35:23;;;;;;;2.72;1.30;;;;;;;;;;5009787;28;20076;-60
2022/08/11 08:37:50;;;;;;;2.05;1.60;;;;;;;;;;4992464;28;20042;-60
2022/08/11 08:40:16;;;;;;;2.25;1.60;;;;;;;;;;4974709;28;20108;-60
2022/08/11 08:42:47;;;;;;;4.13;1.65;;;;;;;;;;4990859;28;20081;-60
2022/08/11 08:45:17;;;;;;;3.28;1.70;;;;;;;;;;4986459;28;20049;-60
2022/08/11 08:47:46;;;;;;;2.92;1.70;;;;;;;;;;4983883;28;20046;-59
2022/08/11 08:50:14;;;;;;;7.60;1.88;;;;;;;;;;4989521;28;20050;-59
2022/08/11 08:52:45;;;;;;;2.88;1.83;;;;;;;;;;4989760;28;20481;-60
2022/08/11 08:55:15;;;;;;;3.03;1.35;;;;;;;;;;4975768;28;20046;-60
2022/08/11 08:57:43;;;;;;;4.60;1.60;;;;;;;;;;4989672;28;20093;-60
2022/08/11 09:00:09;;;;;;;3.47;1.30;;;;;;;;;;4987960;28;20121;-60
2022/08/11 09:02:36;;;;;;;5.18;1.40;;;;;;;;;;4985325;28;20057;-60
2022/08/11 09:05:03;;;;;;;3.97;1.38;;;;;;;;;;4990148;28;20088;-60
2022/08/11 09:07:30;;;;;;;7.75;1.38;;;;;;;;;;4990383;28;20054;-60
2022/08/11 09:09:58;;;;;;;3.80;1.40;;;;;;;;;;5000381;28;20082;-58
2022/08/11 09:12:31;;;;;;;2.70;1.50;;;;;;;;;;4990911;28;20509;-58
2022/08/11 09:15:03;;;;;;;2.00;1.40;;;;;;;;;;5004801;28;20037;-59
2022/08/11 09:17:40;;;;;;;3.25;1.30;;;;;;;;;;4992903;28;20038;-59
2022/08/11 09:20:08;;;;;;;4.43;1.60;;;;;;;;;;4990333;28;20042;-59
2022/08/11 09:28:10;;;;;;;2.65;1.60;;;;;;;;;;4990860;28;20054;-60
2022/08/11 09:30:36;;;;;;;3.28;1.67;;;;;;;;;;4992525;28;20046;-58
2022/08/11 09:33:04;;;;;;;2.70;1.75;;;;;;;;;;4994338;28;20047;-59
2022/08/11 09:35:32;;;;;;;3.42;1.70;;;;;;;;;;4995670;28;20061;-59
2022/08/11 09:40:48;;;;;;;3.42;1.60;;;;;;;;;;5013760;28;20053;-59
2022/08/11 09:46:01;;;;;;;3.10;1.40;;;;;;;;;;4991573;28;20041;-60
2022/08/11 09:48:28;;;;;;;3.33;1.58;;;;;;;;;;4999725;28;20078;-60
2022/08/11 09:50:56;;;;;;;2.97;1.60;;;;;;;;;;5006653;28;20512;-60
2022/08/11 09:53:23;;;;;;;2.22;1.90;;;;;;;;;;4992869;28;20075;-61
2022/08/11 09:55:50;;;;;;;2.90;1.63;;;;;;;;;;4993704;28;20038;-60
2022/08/11 09:58:16;;;;;;;4.13;1.80;;;;;;;;;;4992930;28;20042;-60
2022/08/11 10:00:43;;;;;;;4.72;1.55;;;;;;;;;;4993853;28;20508;-60
2022/08/11 10:03:14;;;;;;;3.45;1.48;;;;;;;;;;4995438;28;20038;-61
2022/08/11 10:08:29;;;;;;;3.38;1.70;;;;;;;;;;4993420;28;20281;-60
2022/08/11 10:10:56;;;;;;;3.65;1.85;;;;;;;;;;4993323;28;20046;-61
2022/08/11 10:13:25;;;;;;;3.38;1.65;;;;;;;;;;4975110;28;20156;-61
2022/08/11 10:15:54;;;;;;;3.25;1.50;;;;;;;;;;4993575;28;20379;-61
2022/08/11 10:18:41;;;;;;;3.92;1.50;;;;;;;;;;4993387;28;20125;-61
2022/08/11 10:21:10;;;;;;;2.30;1.70;;;;;;;;;;4993222;28;20074;-61
2022/08/11 10:34:41;;;;;;;3.78;1.95;;;;;;;;;;4991840;28;20038;-61
2022/08/11 10:37:07;;;;;;;6.43;1.98;;;;;;;;;;4993167;28;20041;-62
2022/08/11 10:39:34;;;;;;;3.40;1.55;;;;;;;;;;5006675;28;20072;-62
2022/08/11 10:44:46;;;;;;;2.65;1.35;;;;;;;;;;4988369;28;20042;-62
2022/08/11 11:01:01;;;;;;;6.50;1.83;;;;;;;;;;4992859;28;20095;-62
2022/08/11 11:03:28;;;;;;;3.58;1.83;;;;;;;;;;4992226;28;20043;-62
2022/08/11 11:05:56;;;;;;;2.83;1.38;;;;;;;;;;4991642;28;20354;-62
2022/08/11 11:11:12;;;;;;;2.75;1.50;;;;;;;;;;4992346;28;20501;-61
2022/08/11 11:19:12;;;;;;;3.13;1.48;;;;;;;;;;4941547;28;20061;-61
2022/08/11 11:21:38;;;;;;;6.70;1.77;;;;;;;;;;4974333;28;20054;-61
2022/08/11 11:24:10;;;;;;;4.75;1.42;;;;;;;;;;4992058;28;20049;-62
2022/08/11 11:26:39;;;;;;;3.25;1.30;;;;;;;;;;4991828;28;20045;-60
2022/08/11 11:29:24;;;;;;;3.08;1.35;;;;;;;;;;4974813;28;20117;-60
2022/08/11 11:31:58;;;;;;;4.35;1.33;;;;;;;;;;4991267;28;20042;-61
2022/08/11 11:34:43;;;;;;;3.92;1.35;;;;;;;;;;4991144;28;20504;-61
2022/08/11 11:37:12;;;;;;;6.45;1.52;;;;;;;;;;4991718;28;20125;-60
2022/08/11 11:39:38;;;;;;;2.45;1.35;;;;;;;;;;4992521;28;20054;-60
2022/08/11 11:42:05;;;;;;;4.55;1.40;;;;;;;;;;4991654;28;20042;-61
2022/08/11 11:44:32;;;;;;;2.88;1.50;;;;;;;;;;4991698;28;20038;-60
2022/08/11 11:46:59;;;;;;;2.38;1.30;;;;;;;;;;4991139;28;20077;-61
2022/08/11 11:49:27;;;;;;;3.50;1.40;;;;;;;;;;5008090;28;20108;-61
2022/08/11 11:51:53;;;;;;;3.72;1.38;;;;;;;;;;5009352;28;20405;-61
2022/08/11 11:54:25;;;;;;;5.60;1.92;;;;;;;;;;5010560;28;20077;-61
2022/08/11 11:56:54;;;;;;;10.75;3.08;;;;;;;;;;5010694;28;20037;-60
2022/08/11 12:02:08;;;;;;;2.85;1.50;;;;;;;;;;5011136;28;20569;-62
2022/08/11 12:04:36;;;;;;;1.40;1.27;;;;;;;;;;5010623;28;20439;-62
2022/08/11 12:09:47;;;;;;;27.73;5.50;;;;;;;;;;4976746;28;20497;-61
2022/08/11 12:14:59;;;;;;;1.75;1.33;;;;;;;;;;5010561;28;20045;-61
2022/08/11 12:17:25;;;;;;;6.03;1.33;;;;;;;;;;5010846;28;20045;-62
2022/08/11 12:19:51;;;;;;;1.83;1.30;;;;;;;;;;5010197;28;20053;-62
2022/08/11 12:27:48;;;;;;;3.28;1.20;;;;;;;;;;5008410;28;20045;-61
2022/08/11 12:30:14;;;;;;;3.13;1.30;;;;;;;;;;5010737;28;20085;-61
2022/08/11 12:32:42;;;;;;;1.95;1.30;;;;;;;;;;5011031;28;20037;-61
2022/08/11 12:35:08;;;;;;;4.05;1.30;;;;;;;;;;5010075;28;20061;-62
2022/08/11 12:37:53;;;;;;;4.63;1.25;;;;;;;;;;5010033;28;20063;-61
2022/08/11 12:45:57;;;;;;;2.55;1.25;;;;;;;;;;4993025;28;20093;-61
2022/08/11 12:54:02;;;;;;;3.47;1.08;;;;;;;;;;5009895;28;20505;-62
2022/08/11 13:05:00;;;;;;;3.08;1.27;;;;;;;;;;5009471;28;20092;-62
2022/08/11 13:07:27;;;;;;;1.10;1.00;;;;;;;;;;5010139;28;20041;-62
2022/08/11 13:09:55;;;;;;;3.40;1.00;;;;;;;;;;5009451;28;20073;-61
2022/08/11 13:15:11;;;;;;;2.40;1.17;;;;;;;;;;5009796;28;20055;-62
2022/08/11 13:17:38;;;;;;;1.85;1.20;;;;;;;;;;5009414;28;20037;-62
2022/08/11 13:20:05;;;;;;;2.72;1.15;;;;;;;;;;5008937;28;20378;-62
2022/08/11 13:22:31;;;;;;;2.70;1.20;;;;;;;;;;5009882;28;20049;-63
2022/08/11 13:24:57;;;;;;;1.75;1.23;;;;;;;;;;5009840;28;20042;-61
2022/08/11 13:27:24;;;;;;;4.88;1.20;;;;;;;;;;5003464;28;20057;-62
2022/08/11 13:31:09;;;;;;;4.07;1.17;;;;;;;;;;5009544;28;20045;-62
2022/08/11 13:32:38;;;;;;;2.50;1.27;;;;;;;;;;5009149;28;20121;-62
2022/08/11 13:35:04;;;;;;;3.47;1.08;;;;;;;;;;4982787;28;20039;-62
2022/08/11 13:37:31;;;;;;;4.05;1.55;;;;;;;;;;5005461;28;20042;-62
2022/08/11 13:39:57;;;;;;;1.25;1.10;;;;;;;;;;5008787;28;20101;-62
2022/08/11 13:42:24;;;;;;;2.30;1.02;;;;;;;;;;5006750;28;20045;-61
2022/08/11 13:44:50;;;;;;;4.60;1.10;;;;;;;;;;4999580;28;20048;-61
2022/08/11 13:47:16;;;;;;;2.28;1.00;;;;;;;;;;5009339;28;20147;-62
2022/08/11 13:49:42;;;;;;;2.05;1.10;;;;;;;;;;4992264;28;20146;-61
2022/08/11 13:52:14;;;;;;;3.97;1.20;;;;;;;;;;4990096;28;20038;-61
2022/08/11 13:54:41;;;;;;;1.95;1.05;;;;;;;;;;4989244;28;20048;-63
2022/08/11 13:57:08;;;;;;;2.53;1.23;;;;;;;;;;4989823;28;20054;-61
2022/08/11 13:59:34;;;;;;;1.30;1.20;;;;;;;;;;4989508;28;20034;-61
2022/08/11 14:02:02;;;;;;;3.58;1.40;;;;;;;;;;4972707;28;20389;-62
2022/08/11 14:04:34;;;;;;;2.70;1.00;;;;;;;;;;4989246;28;20064;-61
2022/08/11 14:07:03;;;;;;;3.45;1.20;;;;;;;;;;4989815;28;20382;-61
2022/08/11 14:09:31;;;;;;;1.65;1.10;;;;;;;;;;4989715;28;20049;-62
2022/08/11 14:14:49;;;;;;;1.33;0.95;;;;;;;;;;4989783;28;20039;-62
2022/08/11 14:17:16;;;;;;;3.42;1.20;;;;;;;;;;4993912;28;20053;-61
2022/08/11 14:19:43;;;;;;;4.32;1.02;;;;;;;;;;4992917;28;20046;-61
2022/08/11 14:22:12;;;;;;;1.83;1.05;;;;;;;;;;4993775;28;20042;-61
2022/08/11 14:24:39;;;;;;;2.25;0.95;;;;;;;;;;4992750;28;20050;-61
2022/08/11 14:27:07;;;;;;;2.15;1.17;;;;;;;;;;4993570;28;20051;-61
2022/08/11 14:29:37;;;;;;;3.58;1.10;;;;;;;;;;4993320;28;20081;-60
2022/08/11 14:32:04;;;;;;;1.58;1.20;;;;;;;;;;5005053;28;20046;-61
2022/08/11 14:34:33;;;;;;;1.80;1.00;;;;;;;;;;4991181;28;20593;-61
2022/08/11 14:37:19;;;;;;;1.65;1.30;;;;;;;;;;4980117;28;20121;-62
2022/08/11 14:39:47;;;;;;;2.47;1.17;;;;;;;;;;4992171;28;20109;-61
2022/08/11 14:47:49;;;;;;;3.78;1.27;;;;;;;;;;5005418;28;20062;-62
2022/08/11 14:50:17;;;;;;;2.50;0.98;;;;;;;;;;4994248;28;20165;-62
2022/08/11 14:52:51;;;;;;;2.72;1.00;;;;;;;;;;4992631;28;20071;-62
2022/08/11 14:58:03;;;;;;;2.63;0.80;;;;;;;;;;4992722;28;20475;-62
2022/08/11 15:00:30;;;;;;;1.00;0.90;;;;;;;;;;4979945;28;20048;-62
2022/08/11 15:03:11;;;;;;;4.40;0.90;;;;;;;;;;5006228;28;20121;-62
2022/08/11 15:05:40;;;;;;;3.85;0.95;;;;;;;;;;4992920;28;20042;-62
2022/08/11 15:08:07;;;;;;;4.15;0.80;;;;;;;;;;4992606;28;20085;-62
2022/08/11 15:10:33;;;;;;;5.20;1.02;;;;;;;;;;4992008;28;20535;-62
2022/08/11 15:13:00;;;;;;;2.97;1.50;;;;;;;;;;4991499;28;20062;-62
2022/08/11 15:18:15;;;;;;;1.48;0.90;;;;;;;;;;4974404;28;20078;-62
2022/08/11 15:26:13;;;;;;;6.47;0.95;;;;;;;;;;4992077;28;20045;-62
2022/08/11 15:39:34;;;;;;;3.25;0.80;;;;;;;;;;4992475;28;20054;-62
2022/08/11 15:47:42;;;;;;;1.52;0.80;;;;;;;;;;4972555;28;20051;-62
2022/08/11 15:50:10;;;;;;;3.22;1.00;;;;;;;;;;4973255;28;20533;-62
2022/08/11 15:52:43;;;;;;;1.60;0.80;;;;;;;;;;4973299;28;20051;-61
2022/08/11 15:55:09;;;;;;;2.05;0.90;;;;;;;;;;4972776;28;20113;-61
2022/08/11 16:05:52;;;;;;;1.92;1.02;;;;;;;;;;4972967;28;20563;-61
2022/08/11 16:08:23;;;;;;;1.77;0.90;;;;;;;;;;4972297;28;20066;-61
2022/08/11 16:10:50;;;;;;;2.55;0.98;;;;;;;;;;4955392;28;20057;-61
2022/08/11 16:18:41;;;;;;;2.50;1.00;;;;;;;;;;4954957;28;20134;-61
2022/08/11 16:21:12;;;;;;;4.93;1.40;;;;;;;;;;4972782;28;20039;-61
2022/08/11 16:23:40;;;;;;;2.97;1.00;;;;;;;;;;4972279;28;20522;-61
2022/08/11 16:26:07;;;;;;;3.78;1.13;;;;;;;;;;4981538;28;20393;-61
2022/08/11 16:28:34;;;;;;;2.95;1.40;;;;;;;;;;4958016;28;20092;-61
2022/08/11 16:31:00;;;;;;;2.47;1.30;;;;;;;;;;4991662;28;20064;-61
2022/08/11 16:33:27;;;;;;;3.72;1.17;;;;;;;;;;4974555;28;20678;-61
2022/08/11 16:38:39;;;;;;;2.15;0.80;;;;;;;;;;4990954;28;20046;-61
2022/08/11 16:41:07;;;;;;;2.72;1.40;;;;;;;;;;4991901;28;20049;-61
2022/08/11 16:49:10;;;;;;;3.97;1.73;;;;;;;;;;4991310;28;20057;-61
2022/08/11 16:51:36;;;;;;;2.63;1.17;;;;;;;;;;4991429;28;20481;-61
2022/08/11 16:54:02;;;;;;;2.50;1.30;;;;;;;;;;4991010;28;20034;-61
2022/08/11 16:56:33;;;;;;;3.10;1.17;;;;;;;;;;4991597;28;20038;-61
2022/08/11 16:59:13;;;;;;;6.68;1.30;;;;;;;;;;4991488;28;20401;-61
2022/08/11 17:01:42;;;;;;;4.18;1.38;;;;;;;;;;4990919;28;20039;-61
2022/08/11 17:13:07;;;;;;;1.55;1.27;;;;;;;;;;4982239;28;20050;-61
2022/08/11 17:18:40;;;;;;;3.80;1.27;;;;;;;;;;4991232;28;20089;-61
2022/08/11 17:21:07;;;;;;;4.88;1.40;;;;;;;;;;4991328;28;20046;-61
2022/08/11 17:23:46;;;;;;;3.67;1.20;;;;;;;;;;4990824;28;20053;-61
2022/08/11 17:26:25;;;;;;;2.72;1.25;;;;;;;;;;4990930;28;20081;-61
2022/08/11 17:28:55;;;;;;;4.22;1.30;;;;;;;;;;4990990;28;20516;-61
2022/08/11 17:36:53;;;;;;;7.85;1.70;;;;;;;;;;4990576;28;20618;-61
2022/08/11 17:39:20;;;;;;;3.50;1.10;;;;;;;;;;4991202;28;20034;-61
2022/08/11 17:50:04;;;;;;;2.80;1.25;;;;;;;;;;4952531;28;20130;-61
2022/08/11 18:00:45;;;;;;;4.60;1.40;;;;;;;;;;4955615;29;20047;-61
2022/08/11 18:03:28;;;;;;;4.68;1.55;;;;;;;;;;4955954;29;20394;-61
2022/08/11 18:05:55;;;;;;;2.97;1.60;;;;;;;;;;4955775;29;20043;-61
